Time;durP1;ratioP1;P1;durP2;ratioP2;P2;SDS_P1;SDS_P2;PMS_P1;PMS_P2;Temp;Humidity;BMP_temperature;BMP_pressure;BME280_temperature;BME280_humidity;BME280_pressure;Samples;Min_cycle;Max_cycle;Signal;HPM_P1;HPM_P2
2022/04/29 00:02:18;;;;;;;11.02;8.23;;;;;;;8.81;64.34;97276.72;5088782;28;20052;-74
2022/04/29 00:04:45;;;;;;;17.42;9.02;;;;;;;8.81;64.00;97288.41;5088491;28;20072;-74
2022/04/29 00:07:13;;;;;;;12.07;8.35;;;;;;;8.80;64.47;97280.53;5088800;28;20418;-73
2022/04/29 00:09:39;;;;;;;15.73;8.30;;;;;;;8.78;64.19;97282.75;5088260;28;20051;-73
2022/04/29 00:12:08;;;;;;;12.55;8.25;;;;;;;8.76;64.16;97274.06;5088572;28;20056;-74
2022/04/29 00:14:37;;;;;;;13.20;9.30;;;;;;;8.71;64.54;97272.19;5088518;28;20040;-73
2022/04/29 00:17:05;;;;;;;12.50;8.30;;;;;;;8.70;64.90;97264.31;5088230;28;20135;-75
2022/04/29 00:19:32;;;;;;;13.05;8.75;;;;;;;8.67;64.69;97264.91;5088616;28;20109;-73
2022/04/29 00:21:59;;;;;;;14.82;8.05;;;;;;;8.67;64.85;97260.28;5088635;28;20149;-74
2022/04/29 00:24:26;;;;;;;12.52;8.80;;;;;;;8.68;65.00;97261.91;5088394;28;20043;-73
2022/04/29 00:26:54;;;;;;;13.07;9.52;;;;;;;8.67;65.20;97260.28;5088118;28;20043;-73
2022/04/29 00:29:21;;;;;;;13.35;8.13;;;;;;;8.66;65.58;97258.66;5088131;28;20144;-73
2022/04/29 00:31:50;;;;;;;11.15;7.88;;;;;;;8.66;65.68;97261.34;5087891;28;20144;-74
2022/04/29 00:34:17;;;;;;;12.77;8.75;;;;;;;8.63;65.60;97257.31;5088466;28;20523;-73
2022/04/29 00:36:44;;;;;;;11.75;8.10;;;;;;;8.59;65.88;97256.25;5087877;28;20131;-73
2022/04/29 00:39:11;;;;;;;11.63;8.48;;;;;;;8.60;65.65;97266.03;5087922;28;20047;-73
2022/04/29 00:41:38;;;;;;;13.25;8.05;;;;;;;8.57;65.70;97258.47;5087106;28;20044;-73
2022/04/29 00:44:07;;;;;;;14.00;7.63;;;;;;;8.55;65.96;97248.97;5087461;28;20509;-74
2022/04/29 00:46:35;;;;;;;11.32;7.32;;;;;;;8.55;65.69;97252.47;5088261;28;20143;-73
2022/04/29 00:49:05;;;;;;;10.80;7.55;;;;;;;8.52;64.98;97247.63;5087178;28;20060;-74
2022/04/29 00:51:32;;;;;;;12.40;8.00;;;;;;;8.50;64.84;97247.09;5088144;28;20516;-73
2022/04/29 00:54:01;;;;;;;12.50;7.55;;;;;;;8.48;65.38;97240.34;5087628;28;20040;-73
2022/04/29 00:56:30;;;;;;;13.93;7.97;;;;;;;8.44;65.27;97240.09;5088229;28;20132;-74
2022/04/29 00:59:03;;;;;;;11.77;8.18;;;;;;;8.40;65.43;97230.88;5086949;28;20049;-73
2022/04/29 01:01:34;;;;;;;12.20;8.48;;;;;;;8.34;65.70;97230.06;5087903;28;20044;-74
2022/04/29 01:04:04;;;;;;;11.15;8.02;;;;;;;8.28;66.03;97235.81;5087595;28;20047;-74
2022/04/29 01:06:31;;;;;;;11.43;7.78;;;;;;;8.25;66.01;97231.78;5088050;28;20033;-73
2022/04/29 01:08:58;;;;;;;11.60;7.85;;;;;;;8.21;66.34;97227.19;5088256;28;20105;-74
2022/04/29 01:11:27;;;;;;;11.50;7.55;;;;;;;8.20;66.21;97239.16;5086595;28;20582;-74
2022/04/29 01:13:55;;;;;;;13.68;8.50;;;;;;;8.15;66.64;97233.75;5088207;28;20078;-74
2022/04/29 01:16:22;;;;;;;12.07;8.07;;;;;;;8.11;66.44;97231.59;5087187;28;20044;-73
2022/04/29 01:18:53;;;;;;;10.43;7.82;;;;;;;8.08;66.69;97231.31;5087757;28;20044;-74
2022/04/29 01:21:21;;;;;;;12.60;8.13;;;;;;;8.01;66.34;97220.78;5087731;28;20052;-73
2022/04/29 01:23:49;;;;;;;11.25;8.50;;;;;;;7.96;67.12;97218.13;5087478;28;20063;-74
2022/04/29 01:26:16;;;;;;;13.00;8.65;;;;;;;7.93;67.41;97215.94;5087046;28;20048;-74
2022/04/29 01:28:45;;;;;;;12.98;8.25;;;;;;;7.86;67.57;97207.31;5086748;28;20139;-73
2022/04/29 01:31:14;;;;;;;14.57;8.40;;;;;;;7.83;67.87;97213.31;5087224;28;20044;-73
2022/04/29 01:33:42;;;;;;;13.23;8.38;;;;;;;7.83;68.49;97210.59;5086236;28;20048;-73
2022/04/29 01:36:10;;;;;;;11.65;8.18;;;;;;;7.86;67.92;97207.31;5087094;28;20074;-73
2022/04/29 01:38:37;;;;;;;10.60;7.95;;;;;;;7.85;67.79;97219.25;5085698;28;20042;-73
2022/04/29 01:41:06;;;;;;;10.73;7.68;;;;;;;7.81;68.13;97216.28;5086548;28;20043;-73
2022/04/29 01:43:34;;;;;;;11.05;7.40;;;;;;;7.83;67.77;97214.13;5086491;28;20044;-73
2022/04/29 01:46:01;;;;;;;11.68;7.32;;;;;;;7.82;67.22;97217.91;5086938;28;20550;-73
2022/04/29 01:48:28;;;;;;;14.20;7.63;;;;;;;7.77;67.64;97220.63;5086592;28;20047;-73
2022/04/29 01:50:55;;;;;;;14.07;7.97;;;;;;;7.76;67.81;97218.22;5086589;28;20049;-73
2022/04/29 01:53:23;;;;;;;16.35;9.63;;;;;;;7.74;68.29;97225.81;5085489;28;20845;-73
2022/04/29 01:55:50;;;;;;;13.05;8.30;;;;;;;7.71;69.12;97216.34;5086209;28;20040;-73
2022/04/29 01:58:18;;;;;;;10.95;7.80;;;;;;;7.70;69.25;97216.63;5086130;28;20080;-73
2022/04/29 02:00:45;;;;;;;12.57;8.27;;;;;;;7.70;69.62;97213.91;5085965;28;20035;-73
2022/04/29 02:03:12;;;;;;;13.90;8.75;;;;;;;7.70;69.64;97213.91;5086545;28;20047;-73
2022/04/29 02:05:39;;;;;;;12.63;8.63;;;;;;;7.69;69.27;97206.88;5085723;28;20105;-73
2022/04/29 02:08:09;;;;;;;11.38;8.23;;;;;;;7.70;69.04;97208.50;5085959;28;20051;-75
2022/04/29 02:10:37;;;;;;;10.80;8.40;;;;;;;7.68;68.89;97211.47;5086413;28;20058;-73
2022/04/29 02:13:04;;;;;;;12.10;8.07;;;;;;;7.69;68.64;97207.69;5085613;28;20155;-73
2022/04/29 02:15:32;;;;;;;14.57;8.38;;;;;;;7.68;68.55;97197.13;5086804;28;20144;-74
2022/04/29 02:17:59;;;;;;;12.00;8.45;;;;;;;7.64;68.77;97199.56;5085627;28;20101;-74
2022/04/29 02:20:26;;;;;;;13.15;8.07;;;;;;;7.64;68.96;97198.75;5086073;28;20050;-73
2022/04/29 02:22:54;;;;;;;12.32;7.53;;;;;;;7.60;67.96;97198.50;5085709;28;20040;-73
2022/04/29 02:25:21;;;;;;;13.18;8.25;;;;;;;7.55;68.19;97196.63;5078251;28;20113;-73
2022/04/29 02:27:47;;;;;;;13.05;7.93;;;;;;;7.53;68.44;97187.97;5085050;28;20044;-74
2022/04/29 02:30:15;;;;;;;13.73;7.80;;;;;;;7.50;68.28;97185.81;5085348;28;20054;-74
2022/04/29 02:32:44;;;;;;;10.48;7.63;;;;;;;7.49;68.42;97186.88;5085700;28;20051;-73
2022/04/29 02:35:11;;;;;;;13.27;7.65;;;;;;;7.49;68.23;97186.09;5084910;28;20044;-74
2022/04/29 02:37:38;;;;;;;13.93;7.82;;;;;;;7.48;67.77;97190.69;5085380;28;20455;-73
2022/04/29 02:40:06;;;;;;;10.07;7.45;;;;;;;7.41;67.61;97200.19;5084606;28;20044;-73
2022/04/29 02:42:33;;;;;;;11.52;7.63;;;;;;;7.36;68.70;97192.91;5086164;28;20048;-73
2022/04/29 02:45:01;;;;;;;27.40;9.60;;;;;;;7.34;68.47;97192.38;5085373;28;20122;-73
2022/04/29 02:47:28;;;;;;;15.60;7.95;;;;;;;7.30;67.97;97191.28;5085770;28;20055;-74
2022/04/29 02:49:57;;;;;;;16.77;8.25;;;;;;;7.29;68.44;97197.81;5084924;28;20125;-74
2022/04/29 02:52:24;;;;;;;15.85;7.80;;;;;;;7.26;68.37;97191.06;5084071;28;20052;-74
2022/04/29 02:54:51;;;;;;;13.25;8.32;;;;;;;7.23;68.87;97198.91;5085246;28;20043;-73
2022/04/29 02:57:18;;;;;;;12.50;7.28;;;;;;;7.23;68.86;97198.91;5083649;28;20503;-73
2022/04/29 02:59:44;;;;;;;17.70;7.80;;;;;;;7.20;69.15;97196.75;5085533;28;20048;-73
2022/04/29 03:02:11;;;;;;;13.73;7.72;;;;;;;7.19;68.54;97197.84;5084741;28;20043;-73
2022/04/29 03:04:37;;;;;;;12.90;8.23;;;;;;;7.17;69.01;97192.69;5085495;28;20402;-74
2022/04/29 03:07:06;;;;;;;12.60;7.90;;;;;;;7.13;69.44;97194.31;5084438;28;20044;-73
2022/04/29 03:09:32;;;;;;;14.25;8.20;;;;;;;7.05;69.04;97186.78;5085674;28;20047;-73
2022/04/29 03:11:59;;;;;;;14.60;7.97;;;;;;;7.00;69.31;97179.47;5084875;28;20059;-73
2022/04/29 03:14:26;;;;;;;16.40;8.90;;;;;;;6.98;69.64;97181.63;5085518;28;20518;-73
2022/04/29 03:16:53;;;;;;;14.13;7.72;;;;;;;6.92;69.65;97169.19;5085004;28;20399;-76
2022/04/29 03:19:19;;;;;;;13.38;7.88;;;;;;;6.93;69.51;97168.09;5081296;28;20055;-73
2022/04/29 03:21:47;;;;;;;13.00;8.50;;;;;;;6.92;69.61;97171.91;5085432;28;20047;-74
2022/04/29 03:24:14;;;;;;;12.15;7.90;;;;;;;6.90;70.06;97162.44;5084589;28;20085;-74
2022/04/29 03:26:41;;;;;;;12.25;7.30;;;;;;;6.91;70.48;97164.88;5085344;28;20476;-74
2022/04/29 03:29:08;;;;;;;10.10;6.82;;;;;;;6.89;69.93;97164.34;5083930;28;20130;-74
2022/04/29 03:31:34;;;;;;;11.43;7.38;;;;;;;6.86;69.89;97162.19;5085616;28;20048;-73
2022/04/29 03:34:01;;;;;;;10.40;7.35;;;;;;;6.83;70.50;97159.19;5084444;28;20047;-73
2022/04/29 03:36:27;;;;;;;14.15;7.15;;;;;;;6.83;70.78;97162.72;5084887;28;20051;-74
2022/04/29 03:38:54;;;;;;;9.52;7.00;;;;;;;6.84;70.92;97158.09;5084552;28;20127;-73
2022/04/29 03:41:22;;;;;;;12.75;6.93;;;;;;;6.84;70.36;97164.34;5084746;28;20046;-73
2022/04/29 03:43:48;;;;;;;14.35;7.15;;;;;;;6.80;69.90;97164.09;5082956;28;20048;-75
2022/04/29 03:46:15;;;;;;;15.85;6.93;;;;;;;6.76;70.64;97164.91;5064167;28;20103;-73
2022/04/29 03:51:26;;;;;;;11.15;6.68;;;;;;;6.75;71.06;97166.00;5063616;28;20074;-74
2022/04/29 03:53:52;;;;;;;18.45;7.85;;;;;;;6.73;71.48;97162.72;5065499;28;20040;-73
2022/04/29 03:56:19;;;;;;;17.27;7.88;;;;;;;6.72;71.19;97163.81;5063691;28;20057;-73
2022/04/29 03:58:47;;;;;;;12.43;7.05;;;;;;;6.70;71.35;97164.09;5064863;28;20063;-73
2022/04/29 04:01:13;;;;;;;12.35;7.30;;;;;;;6.71;71.15;97165.72;5063846;28;20040;-73
2022/04/29 04:03:40;;;;;;;10.48;7.00;;;;;;;6.71;71.03;97170.31;5063853;28;20051;-73
2022/04/29 04:08:51;;;;;;;10.40;7.18;;;;;;;6.68;70.15;97170.84;5063900;28;20055;-74
2022/04/29 04:11:18;;;;;;;12.23;7.45;;;;;;;6.69;69.86;97170.59;5063944;28;20048;-74
2022/04/29 04:13:45;;;;;;;11.85;7.03;;;;;;;6.70;69.79;97174.13;5064302;28;20118;-75
2022/04/29 04:16:13;;;;;;;17.08;7.00;;;;;;;6.67;69.51;97171.94;5086382;28;20044;-74
2022/04/29 04:18:39;;;;;;;12.75;7.43;;;;;;;6.64;69.53;97170.63;5086940;28;20047;-73
2022/04/29 04:21:06;;;;;;;10.80;7.20;;;;;;;6.65;68.91;97182.25;5087973;28;20092;-73
2022/04/29 04:23:32;;;;;;;12.45;7.20;;;;;;;6.62;68.96;97182.78;5087929;28;20456;-73
2022/04/29 04:25:59;;;;;;;10.77;7.05;;;;;;;6.60;69.32;97180.34;5088422;28;20056;-73
2022/04/29 04:28:26;;;;;;;12.45;7.32;;;;;;;6.60;69.37;97184.97;5087594;28;20047;-73
2022/04/29 04:30:52;;;;;;;11.27;7.75;;;;;;;6.57;69.67;97182.78;5087989;28;20040;-74
2022/04/29 04:33:20;;;;;;;12.63;7.07;;;;;;;6.52;69.40;97183.59;5088017;28;20628;-73
2022/04/29 04:35:46;;;;;;;9.43;6.55;;;;;;;6.50;69.48;97191.19;5088083;28;20044;-74
2022/04/29 04:38:14;;;;;;;10.57;6.82;;;;;;;6.50;69.83;97192.00;5087915;28;20134;-73
2022/04/29 04:40:40;;;;;;;11.05;6.70;;;;;;;6.46;69.57;97195.50;5087451;28;20674;-73
2022/04/29 04:43:07;;;;;;;11.07;7.40;;;;;;;6.46;70.04;97207.13;5087790;28;20036;-73
2022/04/29 04:45:33;;;;;;;12.63;8.07;;;;;;;6.46;70.28;97198.22;5087307;28;20040;-73
2022/04/29 04:48:00;;;;;;;17.13;8.80;;;;;;;6.48;70.56;97207.69;5087544;28;20098;-73
2022/04/29 04:50:28;;;;;;;16.00;8.25;;;;;;;6.52;70.72;97205.25;5087204;28;20051;-73
2022/04/29 04:52:54;;;;;;;10.95;8.55;;;;;;;6.56;70.97;97208.22;5087694;28;20043;-74
2022/04/29 04:55:21;;;;;;;16.85;9.90;;;;;;;6.60;71.21;97209.31;5087211;28;20048;-73
2022/04/29 04:57:47;;;;;;;13.15;9.43;;;;;;;6.64;71.44;97210.41;5087196;28;20051;-73
2022/04/29 05:00:15;;;;;;;14.65;8.48;;;;;;;6.69;71.43;97210.41;5087529;28;20048;-73
2022/04/29 05:02:41;;;;;;;12.90;8.73;;;;;;;6.73;71.37;97206.03;5087078;28;20519;-75
2022/04/29 05:05:08;;;;;;;14.75;10.18;;;;;;;6.78;71.81;97212.25;5087576;28;20044;-73
2022/04/29 05:07:38;;;;;;;16.60;11.77;;;;;;;6.85;72.02;97206.59;5086953;28;20055;-74
2022/04/29 05:10:05;;;;;;;15.65;11.00;;;;;;;6.95;71.95;97209.28;5087046;28;20047;-73
2022/04/29 05:12:32;;;;;;;16.40;12.00;;;;;;;7.02;71.96;97208.97;5087053;28;20137;-73
2022/04/29 05:14:58;;;;;;;17.02;11.50;;;;;;;7.10;71.85;97204.91;5087211;28;20047;-73
2022/04/29 05:17:25;;;;;;;17.58;11.18;;;;;;;7.16;71.32;97210.03;5086853;28;20055;-73
2022/04/29 05:19:51;;;;;;;16.65;10.90;;;;;;;7.25;71.17;97221.09;5087134;28;20040;-73
2022/04/29 05:22:18;;;;;;;15.20;11.45;;;;;;;7.33;70.41;97225.97;5087191;28;20127;-73
2022/04/29 05:24:47;;;;;;;15.02;10.63;;;;;;;7.41;70.64;97217.25;5086805;28;20539;-73
2022/04/29 05:27:14;;;;;;;19.50;11.82;;;;;;;7.48;70.68;97223.22;5086758;28;20040;-73
2022/04/29 05:29:40;;;;;;;16.95;11.00;;;;;;;7.57;70.77;97221.56;5087079;28;20044;-73
2022/04/29 05:32:08;;;;;;;18.02;12.00;;;;;;;7.67;70.20;97219.88;5086964;28;20074;-73
2022/04/29 05:34:35;;;;;;;15.65;11.32;;;;;;;7.74;70.26;97214.97;5087104;28;20052;-73
2022/04/29 05:37:01;;;;;;;16.63;11.88;;;;;;;7.80;69.70;97219.28;5086924;28;20052;-73
2022/04/29 05:42:18;;;;;;;17.45;11.18;;;;;;;7.90;68.92;97216.53;5065603;28;20202;-72
2022/04/29 05:44:45;;;;;;;14.82;11.93;;;;;;;7.92;68.24;97211.63;5076342;28;20059;-72
2022/04/29 05:47:11;;;;;;;17.35;11.50;;;;;;;7.95;68.63;97205.66;5085521;28;20413;-73
2022/04/29 05:49:38;;;;;;;14.55;11.02;;;;;;;8.02;68.68;97214.28;5087133;28;20055;-73
2022/04/29 05:52:07;;;;;;;18.10;11.38;;;;;;;8.08;68.58;97199.59;5086090;28;20118;-73
2022/04/29 05:54:33;;;;;;;17.48;11.98;;;;;;;8.19;68.91;97210.38;5086561;28;20666;-74
2022/04/29 05:57:01;;;;;;;21.23;11.50;;;;;;;8.23;68.68;97206.81;5086440;28;20052;-74
2022/04/29 05:59:29;;;;;;;16.30;10.32;;;;;;;8.33;68.30;97205.94;5086115;28;20093;-74
2022/04/29 06:01:56;;;;;;;14.02;11.35;;;;;;;8.40;68.63;97209.16;5086252;28;20040;-75
2022/04/29 06:04:22;;;;;;;21.65;11.48;;;;;;;8.51;68.87;97213.44;5085509;28;20055;-75
2022/04/29 06:06:49;;;;;;;17.13;11.70;;;;;;;8.63;69.02;97208.44;5086838;28;20052;-74
2022/04/29 06:09:16;;;;;;;18.38;12.05;;;;;;;8.76;68.73;97208.88;5085728;28;20399;-75
2022/04/29 06:11:43;;;;;;;14.77;11.10;;;;;;;8.85;68.62;97202.56;5086369;28;20055;-74
2022/04/29 06:14:09;;;;;;;15.23;10.80;;;;;;;8.93;67.73;97209.28;5084351;28;20048;-75
2022/04/29 06:16:37;;;;;;;15.23;10.95;;;;;;;9.04;67.69;97216.22;5086301;28;20064;-75
2022/04/29 06:19:04;;;;;;;14.80;10.88;;;;;;;9.12;67.97;97214.78;5085401;28;20040;-76
2022/04/29 06:21:30;;;;;;;14.23;10.30;;;;;;;9.25;66.57;97213.31;5086515;28;20043;-75
2022/04/29 06:23:57;;;;;;;17.67;11.10;;;;;;;9.37;66.82;97213.72;5085954;28;20418;-75
2022/04/29 06:26:23;;;;;;;18.90;11.45;;;;;;;9.51;67.52;97224.72;5085671;28;20058;-75
2022/04/29 06:28:50;;;;;;;16.70;11.52;;;;;;;9.61;66.97;97224.59;5085927;28;20059;-75
2022/04/29 06:31:16;;;;;;;13.32;10.20;;;;;;;9.77;66.40;97219.78;5083846;28;20051;-75
2022/04/29 06:33:44;;;;;;;15.60;10.07;;;;;;;9.84;65.26;97220.22;5086636;28;20048;-76
2022/04/29 06:36:12;;;;;;;13.77;9.75;;;;;;;9.99;65.94;97220.03;5084615;28;20054;-75
2022/04/29 06:38:38;;;;;;;16.63;10.25;;;;;;;10.08;64.92;97218.25;5085040;28;20047;-75
2022/04/29 06:41:05;;;;;;;15.90;9.85;;;;;;;10.22;65.66;97214.78;5084770;28;20048;-77
2022/04/29 06:43:31;;;;;;;16.83;10.00;;;;;;;10.31;65.37;97205.72;5085904;28;20048;-76
2022/04/29 06:45:58;;;;;;;14.63;9.80;;;;;;;10.43;65.24;97207.97;5085071;28;20036;-75
2022/04/29 06:48:25;;;;;;;12.85;9.32;;;;;;;10.61;65.14;97214.50;5084980;28;20055;-76
2022/04/29 06:50:53;;;;;;;14.32;10.07;;;;;;;10.75;65.21;97214.53;5085554;28;20048;-76
2022/04/29 06:53:20;;;;;;;16.88;10.27;;;;;;;10.91;65.39;97213.19;5084985;28;20047;-76
2022/04/29 06:55:47;;;;;;;14.25;9.32;;;;;;;11.06;64.80;97207.47;5086168;28;20818;-76
2022/04/29 06:58:13;;;;;;;13.02;8.57;;;;;;;11.15;61.53;97222.03;5084227;28;20047;-76
2022/04/29 07:00:42;;;;;;;12.65;8.73;;;;;;;11.29;60.98;97213.06;5085936;28;20513;-76
2022/04/29 07:03:09;;;;;;;13.00;8.20;;;;;;;11.40;61.69;97219.94;5084698;28;20065;-75
2022/04/29 07:05:38;;;;;;;14.95;9.13;;;;;;;11.56;60.92;97220.44;5085666;28;20048;-76
2022/04/29 07:08:06;;;;;;;12.35;8.68;;;;;;;11.71;60.49;97215.50;5084520;28;20047;-75
2022/04/29 07:10:33;;;;;;;12.95;8.40;;;;;;;11.91;60.05;97213.50;5085365;28;20044;-76
2022/04/29 07:13:03;;;;;;;11.40;7.85;;;;;;;12.14;59.09;97217.09;5085231;28;20044;-78
2022/04/29 07:15:29;;;;;;;11.93;7.70;;;;;;;12.33;58.89;97219.69;5084456;28;20043;-76
2022/04/29 07:17:56;;;;;;;8.80;6.40;;;;;;;12.48;55.91;97222.06;5085530;28;20048;-76
2022/04/29 07:20:23;;;;;;;8.82;6.88;;;;;;;12.65;55.08;97216.72;5084321;28;20051;-75
2022/04/29 07:22:50;;;;;;;11.00;6.70;;;;;;;12.80;53.99;97219.09;5085713;28;20048;-76
2022/04/29 07:25:28;;;;;;;11.63;7.00;;;;;;;12.92;53.50;97214.97;5081296;28;20064;-76
2022/04/29 07:27:56;;;;;;;10.55;6.28;;;;;;;13.05;53.13;97217.66;5064176;28;20044;-76
2022/04/29 07:30:23;;;;;;;11.07;7.03;;;;;;;13.18;53.25;97218.66;5046291;28;20090;-78
2022/04/29 07:32:49;;;;;;;8.25;5.63;;;;;;;13.44;53.30;97220.75;5064497;28;20800;-77
2022/04/29 07:43:30;;;;;;;8.23;5.40;;;;;;;15.16;46.96;97204.84;5064307;28;20055;-76
2022/04/29 07:45:56;;;;;;;6.38;4.93;;;;;;;16.23;44.81;97206.47;5083593;28;20075;-75
2022/04/29 07:48:23;;;;;;;7.68;4.68;;;;;;;17.44;40.67;97206.22;5083323;28;20472;-77
2022/04/29 07:50:50;;;;;;;6.03;4.20;;;;;;;18.37;39.40;97202.88;5085174;28;20509;-77
2022/04/29 07:53:16;;;;;;;7.72;5.00;;;;;;;19.15;36.35;97207.91;5088003;28;20059;-77
2022/04/29 07:55:43;;;;;;;9.15;4.90;;;;;;;19.94;35.44;97202.47;5088364;28;20051;-77
2022/04/29 07:58:11;;;;;;;6.57;4.07;;;;;;;20.46;33.63;97200.47;5088181;28;20044;-78
2022/04/29 08:00:38;;;;;;;5.95;3.83;;;;;;;20.71;34.38;97201.03;5087754;28;20056;-76
2022/04/29 08:03:05;;;;;;;7.90;4.43;;;;;;;20.67;32.73;97194.63;5088142;28;20708;-78
2022/04/29 08:05:32;;;;;;;7.78;4.53;;;;;;;20.45;32.37;97198.88;5086902;28;20055;-78
2022/04/29 08:08:00;;;;;;;8.77;4.88;;;;;;;20.50;31.68;97191.13;5087980;28;20910;-76
2022/04/29 08:10:27;;;;;;;11.52;4.95;;;;;;;20.48;31.97;97187.94;5086303;28;20068;-77
2022/04/29 08:12:53;;;;;;;7.95;4.95;;;;;;;20.74;34.54;97189.25;5087285;28;20071;-75
2022/04/29 08:15:21;;;;;;;7.38;4.25;;;;;;;21.02;32.89;97184.28;5087482;28;20044;-76
2022/04/29 08:17:48;;;;;;;6.03;4.45;;;;;;;21.03;31.37;97183.09;5087898;28;20051;-76
2022/04/29 08:20:15;;;;;;;7.82;4.50;;;;;;;21.19;31.57;97176.69;5088199;28;20283;-76
2022/04/29 08:22:42;;;;;;;6.93;4.18;;;;;;;21.17;30.53;97184.56;5087632;28;20734;-77
2022/04/29 08:25:09;;;;;;;10.82;4.38;;;;;;;21.51;29.60;97183.66;5088053;28;20121;-77
2022/04/29 08:27:35;;;;;;;8.43;4.70;;;;;;;22.10;28.67;97182.25;5087460;28;20050;-76
2022/04/29 08:30:03;;;;;;;6.72;4.22;;;;;;;22.61;28.12;97186.56;5088039;28;20067;-77
2022/04/29 08:32:37;;;;;;;8.60;4.43;;;;;;;22.85;27.21;97176.91;5087709;28;20056;-77
2022/04/29 08:35:04;;;;;;;6.30;4.10;;;;;;;23.33;26.99;97165.97;5087513;28;20044;-76
2022/04/29 08:37:31;;;;;;;5.85;3.97;;;;;;;23.78;26.11;97167.59;5087779;28;20072;-75
2022/04/29 08:39:57;;;;;;;6.38;4.32;;;;;;;24.00;26.43;97176.13;5087773;28;20048;-76
2022/04/29 08:42:26;;;;;;;7.93;4.70;;;;;;;23.72;25.07;97163.59;5087334;28;20709;-76
2022/04/29 08:44:54;;;;;;;6.78;4.00;;;;;;;23.47;25.35;97163.31;5086866;28;20055;-78
2022/04/29 08:47:22;;;;;;;8.10;4.22;;;;;;;23.34;25.70;97165.59;5078659;28;20470;-76
2022/04/29 08:49:52;;;;;;;7.03;4.50;;;;;;;23.13;26.64;97171.75;5066546;28;20049;-77
2022/04/29 08:52:18;;;;;;;6.97;4.85;;;;;;;23.08;25.85;97168.50;5067247;28;20131;-76
2022/04/29 09:00:15;;;;;;;6.25;4.72;;;;;;;22.38;28.25;97164.41;5067325;28;20537;-75
2022/04/29 09:02:42;;;;;;;6.65;4.40;;;;;;;22.23;27.39;97151.53;5066167;28;20047;-78
2022/04/29 09:05:12;;;;;;;9.23;5.10;;;;;;;21.87;26.56;97151.78;5066955;28;20055;-76
2022/04/29 09:07:52;;;;;;;9.13;5.28;;;;;;;21.57;26.69;97148.13;5066575;28;20048;-76
2022/04/29 09:10:19;;;;;;;7.95;4.32;;;;;;;21.51;27.43;97150.41;5066766;28;20092;-77
2022/04/29 09:12:46;;;;;;;9.38;4.57;;;;;;;21.46;26.30;97153.47;5066763;28;20048;-76
2022/04/29 09:15:14;;;;;;;7.38;4.47;;;;;;;21.37;26.06;97139.06;5079341;28;20048;-78
2022/04/29 09:17:45;;;;;;;9.10;5.32;;;;;;;21.20;26.14;97139.53;5087297;28;20051;-76
2022/04/29 09:20:16;;;;;;;11.93;4.78;;;;;;;21.03;26.03;97133.25;5086447;28;20048;-77
2022/04/29 09:22:46;;;;;;;9.55;5.18;;;;;;;21.01;27.87;97132.84;5087512;28;20040;-76
2022/04/29 09:25:12;;;;;;;10.77;5.32;;;;;;;20.91;26.14;97127.91;5085981;28;20056;-77
2022/04/29 09:27:54;;;;;;;9.38;4.95;;;;;;;20.62;27.78;97139.56;5087178;28;20040;-79
2022/04/29 09:30:32;;;;;;;8.63;4.47;;;;;;;20.06;27.52;97133.25;5086098;28;20087;-76
2022/04/29 09:32:59;;;;;;;9.93;4.97;;;;;;;19.89;28.97;97132.81;5086920;28;20048;-77
2022/04/29 09:35:40;;;;;;;6.20;4.70;;;;;;;20.00;28.50;97131.94;5086408;28;20471;-76
2022/04/29 09:40:53;;;;;;;8.65;4.90;;;;;;;20.10;28.40;97133.34;5087178;28;20063;-78
2022/04/29 09:43:38;;;;;;;6.25;4.32;;;;;;;20.24;30.46;97125.34;5085712;28;20052;-75
2022/04/29 09:46:16;;;;;;;6.32;4.68;;;;;;;20.40;28.33;97128.03;5085097;28;20048;-78
2022/04/29 09:49:00;;;;;;;8.23;4.20;;;;;;;20.62;28.15;97122.97;5086381;28;20048;-77
2022/04/29 09:51:45;;;;;;;7.97;4.95;;;;;;;20.55;25.99;97115.34;5085680;28;20044;-77
2022/04/29 09:54:16;;;;;;;6.28;3.90;;;;;;;20.52;26.46;97116.88;5086769;28;20039;-76
2022/04/29 09:56:43;;;;;;;6.45;4.30;;;;;;;20.48;26.12;97116.00;5085850;28;20094;-76
2022/04/29 09:59:10;;;;;;;7.15;4.45;;;;;;;20.53;26.43;97124.00;5086058;28;20091;-77
2022/04/29 10:01:37;;;;;;;8.18;4.85;;;;;;;20.51;26.88;97109.72;5085865;28;20058;-78
2022/04/29 10:04:04;;;;;;;8.40;4.60;;;;;;;20.47;27.54;97114.41;5085824;28;20543;-76
2022/04/29 10:06:33;;;;;;;7.43;4.90;;;;;;;20.49;28.33;97112.06;5086253;28;20051;-79
2022/04/29 10:09:01;;;;;;;6.20;4.60;;;;;;;20.45;27.54;97113.91;5085896;28;20040;-76
2022/04/29 10:11:29;;;;;;;6.28;4.80;;;;;;;20.38;30.08;97108.25;5077614;28;20052;-76
2022/04/29 10:13:59;;;;;;;8.02;5.00;;;;;;;20.48;27.93;97115.19;5084183;28;20601;-77
2022/04/29 10:16:29;;;;;;;6.32;4.80;;;;;;;20.63;30.24;97110.75;5085950;28;20548;-76
2022/04/29 10:21:47;;;;;;;9.98;5.40;;;;;;;20.80;27.43;97107.53;5085723;28;20692;-77
2022/04/29 10:24:15;;;;;;;11.75;5.47;;;;;;;20.77;30.83;97100.75;5084912;28;20311;-76
2022/04/29 10:26:42;;;;;;;8.15;5.03;;;;;;;20.87;27.43;97093.81;5085588;28;20499;-75
2022/04/29 10:29:09;;;;;;;9.48;5.50;;;;;;;20.87;28.63;97096.59;5085315;28;20427;-76
2022/04/29 10:31:36;;;;;;;6.25;4.80;;;;;;;20.98;27.40;97088.47;5085429;28;20047;-76
2022/04/29 10:34:28;;;;;;;9.02;5.10;;;;;;;21.04;28.26;97087.81;5085916;28;20052;-76
2022/04/29 10:36:54;;;;;;;8.35;5.00;;;;;;;21.08;29.38;97091.44;5084873;28;20068;-76
2022/04/29 10:39:23;;;;;;;10.13;5.32;;;;;;;21.04;28.17;97087.81;5085492;28;20051;-76
2022/04/29 10:42:01;;;;;;;7.43;5.50;;;;;;;21.08;29.50;97088.66;5086057;28;20520;-77
2022/04/29 10:44:28;;;;;;;10.43;5.50;;;;;;;21.17;29.06;97076.56;5084917;28;20036;-77
2022/04/29 10:46:55;;;;;;;7.80;5.40;;;;;;;21.20;28.59;97084.13;5085815;28;20043;-76
2022/04/29 10:49:24;;;;;;;6.72;4.85;;;;;;;21.39;28.90;97070.22;5084094;28;20055;-78
2022/04/29 10:51:51;;;;;;;7.30;5.40;;;;;;;21.36;26.31;97076.53;5085974;28;20755;-76
2022/04/29 10:54:45;;;;;;;10.35;5.32;;;;;;;21.24;28.08;97069.16;5084217;28;20484;-76
2022/04/29 10:57:14;;;;;;;7.95;5.25;;;;;;;21.16;27.46;97069.41;5085106;28;20044;-76
2022/04/29 10:59:51;;;;;;;6.20;4.63;;;;;;;21.27;25.58;97067.63;5084822;28;20076;-77
2022/04/29 11:02:25;;;;;;;13.68;4.15;;;;;;;21.13;26.06;97068.16;5084405;28;20048;-76
2022/04/29 11:04:52;;;;;;;11.40;5.03;;;;;;;21.05;26.69;97061.72;5075475;28;20036;-78
2022/04/29 11:07:39;;;;;;;7.53;4.20;;;;;;;21.13;27.49;97064.59;5063902;28;20047;-77
2022/04/29 11:10:08;;;;;;;6.45;4.13;;;;;;;21.28;26.05;97058.13;5064821;28;20049;-76
2022/04/29 11:12:39;;;;;;;6.57;4.65;;;;;;;21.14;25.50;97052.34;5064204;28;20045;-77
2022/04/29 11:15:08;;;;;;;7.68;4.22;;;;;;;21.15;27.49;97048.44;5076391;28;20048;-76
2022/04/29 11:17:36;;;;;;;7.68;4.55;;;;;;;21.33;26.51;97049.53;5084938;28;20056;-76
2022/04/29 11:20:14;;;;;;;6.93;4.05;;;;;;;21.19;25.39;97043.72;5084325;28;20125;-79
2022/04/29 11:25:27;;;;;;;11.48;4.70;;;;;;;21.16;26.22;97034.22;5083544;28;20624;-76
2022/04/29 11:27:53;;;;;;;4.95;3.72;;;;;;;21.20;28.31;97028.75;5085177;28;20055;-77
2022/04/29 11:30:20;;;;;;;4.63;3.47;;;;;;;21.26;24.49;97035.56;5084344;28;20498;-76
2022/04/29 11:32:46;;;;;;;8.50;4.18;;;;;;;21.21;24.62;97030.34;5085116;28;20610;-76
2022/04/29 11:35:13;;;;;;;6.97;4.25;;;;;;;21.16;25.19;97019.56;5084053;28;20048;-78
2022/04/29 11:37:39;;;;;;;7.90;3.97;;;;;;;21.30;26.42;97017.06;5084270;28;20517;-77
2022/04/29 11:40:08;;;;;;;6.22;4.00;;;;;;;21.31;25.07;97024.19;5084097;28;20044;-75
2022/04/29 11:42:36;;;;;;;5.60;4.13;;;;;;;21.20;23.92;97021.22;5084591;28;20052;-76
2022/04/29 11:45:07;;;;;;;5.45;3.80;;;;;;;21.21;25.86;97024.78;5084308;28;20059;-76
2022/04/29 11:47:34;;;;;;;6.05;3.90;;;;;;;21.28;24.56;97013.81;5083930;28;20051;-75
2022/04/29 11:50:02;;;;;;;6.10;4.32;;;;;;;21.43;25.42;97012.91;5085311;28;20418;-76
2022/04/29 11:52:31;;;;;;;5.63;3.78;;;;;;;21.39;24.35;97002.94;5083877;28;20064;-75
2022/04/29 11:54:59;;;;;;;12.07;6.80;;;;;;;21.24;22.80;97007.41;5084687;28;20075;-74
2022/04/29 11:57:27;;;;;;;5.75;4.07;;;;;;;21.08;25.93;97002.03;5083641;28;20044;-76
2022/04/29 11:59:55;;;;;;;10.27;3.88;;;;;;;21.06;27.01;96994.09;5084095;28;20458;-74
2022/04/29 12:02:23;;;;;;;6.32;4.38;;;;;;;21.06;26.62;96990.53;5082876;28;20055;-76
2022/04/29 12:04:54;;;;;;;6.93;4.28;;;;;;;20.95;25.97;96998.66;5084118;28;20047;-77
2022/04/29 12:07:21;;;;;;;5.30;3.80;;;;;;;20.70;26.25;96991.88;5084141;28;20411;-76